Time;durP1;ratioP1;P1;durP2;ratioP2;P2;SDS_P1;SDS_P2;PMS_P1;PMS_P2;Temp;Humidity;BMP_temperature;BMP_pressure;BME280_temperature;BME280_humidity;BME280_pressure;Samples;Min_cycle;Max_cycle;Signal;HPM_P1;HPM_P2
2023/06/27 04:02:37;;;;;;;0.67;0.20;;;21.10;1.00;;;;;;5069866;23;20500;-70
2023/06/27 04:05:05;;;;;;;0.60;0.20;;;21.10;1.00;;;;;;4938313;29;20444;-72
2023/06/27 04:07:34;;;;;;;0.60;0.20;;;20.90;1.00;;;;;;4956897;29;21008;-72
2023/06/27 04:10:02;;;;;;;0.60;0.20;;;20.80;1.00;;;;;;4957314;29;20455;-72
2023/06/27 04:12:30;;;;;;;0.60;0.20;;;20.80;1.00;;;;;;4956410;28;21025;-72
2023/06/27 04:14:58;;;;;;;0.70;0.20;;;;;;;;;;4974088;23;20529;-70
2023/06/27 04:17:26;;;;;;;0.60;0.10;;;20.80;1.00;;;;;;4967898;28;20540;-71
2023/06/27 04:19:56;;;;;;;0.63;0.17;;;20.80;1.00;;;;;;4975973;28;20941;-70
2023/06/27 04:22:23;;;;;;;0.60;0.20;;;20.80;1.00;;;;;;4967616;28;20535;-71
2023/06/27 04:24:51;;;;;;;0.60;0.10;;;20.90;1.00;;;;;;4976425;28;20558;-70
2023/06/27 04:27:19;;;;;;;0.60;0.20;;;21.00;1.00;;;;;;4976017;28;20537;-70
2023/06/27 04:29:47;;;;;;;0.60;0.10;;;;;;;;;;4976249;28;20458;-70
2023/06/27 04:32:16;;;;;;;0.60;0.10;;;;;;;;;;4976046;28;20458;-70
2023/06/27 04:34:43;;;;;;;0.60;0.10;;;21.10;1.00;;;;;;4968005;28;20464;-70
2023/06/27 04:37:13;;;;;;;0.60;0.20;;;21.10;1.00;;;;;;4994737;28;20486;-70
2023/06/27 04:39:40;;;;;;;0.60;0.10;;;21.00;1.00;;;;;;4995443;28;20537;-70
2023/06/27 04:42:09;;;;;;;0.60;0.10;;;20.80;1.00;;;;;;4995079;28;20896;-70
2023/06/27 04:44:38;;;;;;;0.80;0.20;;;;;;;;;;4995171;28;20493;-69
2023/06/27 04:47:06;;;;;;;0.60;0.20;;;;;;;;;;4980839;28;20453;-70
2023/06/27 04:49:34;;;;;;;0.60;0.10;;;20.30;1.00;;;;;;4975639;28;20486;-70
2023/06/27 04:52:02;;;;;;;0.60;0.10;;;20.30;1.00;;;;;;4981797;28;20532;-71
2023/06/27 04:54:31;;;;;;;0.80;0.20;;;20.30;1.00;;;;;;4994574;28;20452;-71
2023/06/27 04:56:59;;;;;;;0.60;0.13;;;20.30;1.00;;;;;;4994779;28;21004;-71
2023/06/27 04:59:39;;;;;;;0.60;0.20;;;20.30;1.00;;;;;;4995163;28;20441;-70
2023/06/27 05:02:08;;;;;;;0.60;0.20;;;20.30;1.00;;;;;;4994855;28;20485;-69
2023/06/27 05:04:36;;;;;;;0.60;0.20;;;20.30;1.00;;;;;;4986385;28;20541;-70
2023/06/27 05:07:05;;;;;;;0.60;0.10;;;20.30;1.00;;;;;;4994386;28;20559;-71
2023/06/27 05:09:35;;;;;;;0.60;0.10;;;;;;;;;;4994212;28;20456;-70
2023/06/27 05:12:03;;;;;;;0.60;0.10;;;20.30;1.00;;;;;;4990884;28;20459;-72
2023/06/27 05:14:31;;;;;;;1.53;0.30;;;;;;;;;;4994159;28;20471;-70
2023/06/27 05:16:59;;;;;;;0.60;0.10;;;20.60;1.00;;;;;;4993297;28;20473;-71
2023/06/27 05:19:27;;;;;;;0.60;0.20;;;;;;;;;;4998727;28;20481;-71
2023/06/27 05:21:55;;;;;;;0.60;0.10;;;20.50;1.00;;;;;;5004304;28;20940;-71
2023/06/27 05:24:23;;;;;;;1.00;0.23;;;;;;;;;;5004134;28;20514;-72
2023/06/27 05:26:52;;;;;;;0.60;0.10;;;20.50;1.00;;;;;;4994766;28;20461;-71
2023/06/27 05:29:20;;;;;;;0.60;0.20;;;20.40;1.00;;;;;;4987956;28;20531;-71
2023/06/27 05:31:50;;;;;;;0.60;0.20;;;20.60;1.00;;;;;;4976215;28;20454;-71
2023/06/27 05:34:18;;;;;;;0.60;0.20;;;;;;;;;;4975272;28;20482;-71
2023/06/27 05:36:46;;;;;;;0.60;0.20;;;;;;;;;;4987014;28;20478;-70
2023/06/27 05:39:14;;;;;;;0.60;0.17;;;20.30;1.00;;;;;;4994547;28;20496;-70
2023/06/27 05:41:42;;;;;;;0.60;0.10;;;20.30;1.00;;;;;;4985111;28;20480;-73
2023/06/27 05:44:11;;;;;;;0.60;0.20;;;20.30;1.00;;;;;;4994013;28;20532;-71
2023/06/27 05:46:39;;;;;;;0.60;0.10;;;20.50;1.00;;;;;;4994409;28;20564;-70
2023/06/27 05:49:07;;;;;;;0.60;0.10;;;20.60;1.00;;;;;;4994245;28;20509;-71
2023/06/27 05:51:36;;;;;;;0.60;0.20;;;;;;;;;;4993976;28;20450;-71
2023/06/27 05:54:04;;;;;;;0.60;0.10;;;20.80;1.00;;;;;;4994469;28;20556;-70
2023/06/27 05:56:32;;;;;;;0.70;0.20;;;20.80;1.00;;;;;;4994259;28;21069;-71
2023/06/27 05:58:59;;;;;;;0.60;0.20;;;20.90;1.00;;;;;;4994949;28;20581;-72
2023/06/27 06:01:29;;;;;;;0.60;0.20;;;20.90;1.00;;;;;;4993325;28;20444;-72
2023/06/27 06:03:56;;;;;;;0.60;0.20;;;21.10;1.00;;;;;;4993888;28;20437;-72
2023/06/27 06:06:24;;;;;;;0.70;0.40;;;21.30;1.00;;;;;;4991911;28;20603;-72
2023/06/27 06:08:53;;;;;;;0.70;0.27;;;;;;;;;;4993960;28;20440;-73
2023/06/27 06:11:20;;;;;;;0.90;0.43;;;21.40;1.00;;;;;;4990644;28;20469;-73
2023/06/27 06:13:49;;;;;;;5.40;5.00;;;;;;;;;;4993396;28;20473;-73
2023/06/27 06:16:16;;;;;;;0.70;0.20;;;21.20;1.00;;;;;;4993770;28;20482;-72
2023/06/27 06:18:46;;;;;;;0.70;0.20;;;21.30;1.00;;;;;;4993684;28;20536;-72
2023/06/27 06:21:14;;;;;;;0.60;0.20;;;21.40;1.00;;;;;;4993446;28;20524;-70
2023/06/27 06:23:41;;;;;;;0.70;0.40;;;21.40;1.00;;;;;;4993509;28;20446;-70
2023/06/27 06:26:09;;;;;;;0.70;0.20;;;21.50;1.00;;;;;;4993782;28;20561;-71
2023/06/27 06:28:37;;;;;;;0.70;0.40;;;21.40;1.00;;;;;;4993628;28;20480;-71
2023/06/27 06:31:06;;;;;;;10.43;1.33;;;21.30;1.00;;;;;;4994174;28;20454;-70
2023/06/27 06:33:34;;;;;;;2.57;0.63;;;21.30;1.00;;;;;;4993289;28;20474;-70
2023/06/27 06:36:04;;;;;;;0.70;0.20;;;21.30;1.00;;;;;;4993828;28;20587;-71
2023/06/27 06:38:31;;;;;;;0.70;0.20;;;21.50;1.00;;;;;;4993397;28;20482;-71
2023/06/27 06:40:59;;;;;;;0.70;0.30;;;21.70;1.00;;;;;;4993543;28;20456;-71
2023/06/27 06:43:27;;;;;;;0.70;0.30;;;21.70;1.00;;;;;;4992946;28;20453;-72
2023/06/27 06:45:55;;;;;;;0.70;0.20;;;21.80;1.00;;;;;;4993617;28;20473;-71
2023/06/27 06:48:24;;;;;;;0.70;0.20;;;22.00;1.00;;;;;;4993237;28;20529;-71
2023/06/27 06:50:59;;;;;;;0.70;0.10;;;22.00;1.00;;;;;;4993193;28;20480;-71
2023/06/27 06:53:52;;;;;;;0.70;0.17;;;22.20;1.00;;;;;;4991781;28;20470;-71
2023/06/27 06:56:20;;;;;;;0.70;0.20;;;22.30;1.00;;;;;;4985051;28;20914;-72
2023/06/27 06:58:48;;;;;;;0.70;0.10;;;22.50;1.00;;;;;;4973977;28;20901;-71
2023/06/27 07:01:18;;;;;;;1.10;0.40;;;;;;;;;;4973278;28;20452;-72
2023/06/27 07:03:46;;;;;;;0.80;0.30;;;;;;;;;;4974232;28;20447;-72
2023/06/27 07:06:14;;;;;;;0.70;0.10;;;22.60;1.00;;;;;;4973293;28;20602;-71
2023/06/27 07:08:42;;;;;;;0.70;0.13;;;22.60;1.00;;;;;;4973436;28;20868;-71
2023/06/27 07:11:11;;;;;;;0.70;0.10;;;22.50;1.00;;;;;;4982796;28;20628;-72
2023/06/27 07:13:38;;;;;;;0.70;0.10;;;22.60;1.00;;;;;;4992277;28;20523;-71
2023/06/27 07:16:06;;;;;;;0.70;0.20;;;22.70;1.00;;;;;;4992228;28;20481;-71
2023/06/27 07:18:34;;;;;;;0.70;0.10;;;22.90;1.00;;;;;;4992426;28;20478;-71
2023/06/27 07:21:03;;;;;;;0.70;0.20;;;;;;;;;;4992564;28;20542;-71
2023/06/27 07:23:30;;;;;;;0.70;0.10;;;22.90;1.00;;;;;;4992692;28;20446;-71
2023/06/27 07:25:59;;;;;;;0.70;0.10;;;;;;;;;;4992514;28;20565;-71
2023/06/27 07:28:28;;;;;;;0.70;0.20;;;23.00;1.00;;;;;;4992451;28;20453;-72
2023/06/27 07:30:56;;;;;;;0.70;0.20;;;23.10;1.00;;;;;;4994135;28;20458;-71
2023/06/27 07:33:24;;;;;;;0.70;0.10;;;26.20;1.00;;;;;;4995654;28;20462;-71
2023/06/27 07:35:52;;;;;;;0.70;0.17;;;23.30;1.00;;;;;;4996167;28;20473;-71
2023/06/27 07:38:20;;;;;;;0.70;0.20;;;23.30;1.00;;;;;;4996225;28;20530;-71
2023/06/27 07:40:47;;;;;;;0.70;0.10;;;23.30;1.00;;;;;;4996358;28;20451;-71
2023/06/27 07:43:15;;;;;;;1.90;1.80;;;23.30;1.00;;;;;;4996028;28;20511;-71
2023/06/27 07:45:46;;;;;;;0.70;0.10;;;;;;;;;;4995756;28;20519;-71
2023/06/27 07:48:14;;;;;;;0.70;0.20;;;;;;;;;;4996420;28;20461;-71
2023/06/27 07:50:42;;;;;;;0.70;0.13;;;;;;;;;;4996310;28;20470;-71
2023/06/27 07:53:10;;;;;;;0.70;0.20;;;23.40;1.00;;;;;;4995633;28;20463;-71
2023/06/27 07:55:38;;;;;;;0.90;0.60;;;23.40;1.00;;;;;;4995706;28;20471;-71
2023/06/27 07:58:06;;;;;;;0.70;0.20;;;23.30;1.00;;;;;;4996016;28;20483;-70
2023/06/27 08:00:34;;;;;;;0.70;0.20;;;;;;;;;;4996327;28;20486;-70
2023/06/27 08:03:03;;;;;;;0.70;0.20;;;23.10;1.00;;;;;;4995840;28;20561;-71
2023/06/27 08:05:34;;;;;;;0.70;0.10;;;;;;;;;;4996249;28;20472;-71
2023/06/27 08:08:02;;;;;;;0.70;0.10;;;22.90;1.00;;;;;;4995822;28;20858;-71
2023/06/27 08:10:31;;;;;;;0.83;0.30;;;;;;;;;;4995829;28;20474;-71
2023/06/27 08:12:58;;;;;;;0.70;0.17;;;22.70;1.00;;;;;;4994213;28;20926;-70
2023/06/27 08:15:27;;;;;;;0.80;0.53;;;;;;;;;;4996092;28;20516;-71
2023/06/27 08:18:06;;;;;;;0.70;0.30;;;22.30;1.00;;;;;;4995891;28;20447;-71
2023/06/27 08:20:34;;;;;;;0.70;0.10;;;22.20;1.00;;;;;;4993841;28;20489;-71
2023/06/27 08:23:02;;;;;;;0.70;0.20;;;22.40;1.00;;;;;;4989045;28;20475;-71
2023/06/27 08:25:30;;;;;;;0.70;0.30;;;;;;;;;;4995540;28;20483;-70
2023/06/27 08:27:59;;;;;;;0.70;0.17;;;;;;;;;;4995413;28;20452;-70
2023/06/27 08:30:28;;;;;;;0.70;0.20;;;22.80;1.00;;;;;;4995527;28;20535;-71
2023/06/27 08:32:56;;;;;;;0.80;0.30;;;22.80;1.00;;;;;;4998172;28;20811;-70
2023/06/27 08:35:25;;;;;;;0.70;0.10;;;22.90;1.00;;;;;;4993339;28;20466;-71
2023/06/27 08:37:57;;;;;;;0.70;0.20;;;;;;;;;;5004850;28;21010;-71
2023/06/27 08:40:26;;;;;;;0.70;0.10;;;23.00;1.00;;;;;;4996474;28;20570;-72
2023/06/27 08:42:54;;;;;;;0.60;0.10;;;23.00;1.00;;;;;;4995235;28;20454;-71
2023/06/27 08:45:22;;;;;;;0.70;0.20;;;23.10;1.00;;;;;;4995047;28;20463;-71
2023/06/27 08:47:50;;;;;;;0.70;0.20;;;23.20;1.00;;;;;;4994764;28;20554;-71
2023/06/27 08:50:21;;;;;;;0.70;0.10;;;23.30;1.00;;;;;;4995095;28;20447;-70
2023/06/27 08:52:55;;;;;;;0.70;0.10;;;23.40;1.00;;;;;;4994778;28;20946;-70
2023/06/27 08:55:31;;;;;;;0.70;0.10;;;23.50;1.00;;;;;;4995441;28;21020;-71
2023/06/27 08:58:02;;;;;;;0.70;0.20;;;23.40;1.00;;;;;;4995716;28;20487;-71
2023/06/27 09:00:31;;;;;;;0.70;0.20;;;23.20;1.00;;;;;;4994454;28;20582;-72
2023/06/27 09:02:59;;;;;;;0.70;0.10;;;23.10;1.00;;;;;;4994673;28;20545;-71
2023/06/27 09:05:27;;;;;;;2.10;0.77;;;;;;;;;;4994783;28;20483;-71
2023/06/27 09:07:57;;;;;;;0.70;0.20;;;22.70;1.00;;;;;;4994995;28;20495;-71
2023/06/27 09:10:25;;;;;;;0.70;0.20;;;;;;;;;;4994242;28;20528;-72
2023/06/27 09:12:54;;;;;;;2.10;0.60;;;22.60;1.00;;;;;;4994588;28;20486;-71
2023/06/27 09:15:23;;;;;;;0.90;0.20;;;22.30;1.00;;;;;;4994598;28;20514;-71
2023/06/27 09:17:51;;;;;;;0.70;0.10;;;22.30;1.00;;;;;;4995484;28;20528;-72
2023/06/27 09:20:20;;;;;;;0.70;0.20;;;22.50;1.00;;;;;;4994756;28;20470;-71
2023/06/27 09:22:48;;;;;;;0.70;0.20;;;22.60;1.00;;;;;;4994975;28;20481;-71
2023/06/27 09:25:19;;;;;;;0.70;0.20;;;22.70;1.00;;;;;;4994518;28;20493;-72
2023/06/27 09:27:47;;;;;;;0.70;0.10;;;22.90;1.00;;;;;;4994960;28;20454;-71
2023/06/27 09:30:17;;;;;;;0.70;0.10;;;;;;;;;;4995386;28;20950;-71
2023/06/27 09:32:56;;;;;;;0.70;0.10;;;23.20;1.00;;;;;;4996677;28;20902;-70
2023/06/27 09:35:25;;;;;;;0.70;0.10;;;23.50;1.00;;;;;;4991587;28;20470;-72
2023/06/27 09:38:13;;;;;;;1.57;0.40;;;23.50;1.00;;;;;;4995127;28;20450;-71
2023/06/27 09:40:45;;;;;;;0.70;0.20;;;23.50;1.00;;;;;;4994513;28;21099;-71
2023/06/27 09:43:15;;;;;;;0.70;0.10;;;23.40;1.00;;;;;;4994004;28;20479;-72
2023/06/27 09:45:44;;;;;;;0.80;0.40;;;;;;;;;;4994101;28;21038;-72
2023/06/27 09:48:16;;;;;;;0.90;0.40;;;23.30;1.00;;;;;;4994766;28;20445;-71
2023/06/27 09:50:44;;;;;;;0.70;0.10;;;;;;;;;;4993899;28;20448;-72
2023/06/27 09:53:14;;;;;;;0.70;0.10;;;23.30;1.00;;;;;;4993998;28;20463;-72
2023/06/27 09:55:47;;;;;;;0.70;0.20;;;23.50;1.00;;;;;;4993749;28;20911;-71
2023/06/27 09:58:16;;;;;;;0.70;0.10;;;;;;;;;;4994752;28;20453;-71
2023/06/27 10:00:48;;;;;;;0.70;0.20;;;23.50;1.00;;;;;;4993927;28;21030;-71
2023/06/27 10:03:19;;;;;;;0.70;0.10;;;23.50;1.00;;;;;;4980889;28;20481;-71
2023/06/27 10:05:47;;;;;;;0.70;0.10;;;23.60;1.00;;;;;;4997668;28;20981;-71
2023/06/27 10:08:34;;;;;;;0.70;0.10;;;23.60;1.00;;;;;;5001799;28;20811;-71
2023/06/27 10:11:03;;;;;;;0.70;0.17;;;23.70;1.00;;;;;;5000437;28;20536;-71
2023/06/27 10:13:31;;;;;;;0.80;0.50;;;23.60;1.00;;;;;;4998541;28;20728;-71
2023/06/27 10:16:08;;;;;;;0.70;0.10;;;23.50;1.00;;;;;;5090391;28;21055;-70
2023/06/27 10:18:36;;;;;;;0.80;0.30;;;23.20;1.00;;;;;;5089960;28;20459;-71
2023/06/27 10:21:05;;;;;;;0.70;0.20;;;23.10;1.00;;;;;;5089102;28;20447;-70
2023/06/27 10:23:34;;;;;;;0.70;0.20;;;23.20;1.00;;;;;;5089755;28;20444;-71
2023/06/27 10:26:03;;;;;;;0.73;0.30;;;23.30;1.00;;;;;;5089312;28;20566;-72
2023/06/27 10:28:31;;;;;;;0.70;0.30;;;23.20;1.00;;;;;;5089661;28;20878;-71
2023/06/27 10:30:59;;;;;;;0.70;0.20;;;23.40;1.00;;;;;;5088241;28;20493;-71
2023/06/27 10:33:29;;;;;;;0.70;0.20;;;23.30;1.00;;;;;;5088432;28;20442;-71
2023/06/27 10:36:05;;;;;;;0.80;0.57;;;23.30;1.00;;;;;;5088208;28;20544;-71
2023/06/27 10:38:35;;;;;;;0.60;0.10;;;22.90;1.00;;;;;;5087307;28;20454;-71
2023/06/27 10:41:11;;;;;;;0.70;0.20;;;23.20;1.00;;;;;;5076009;28;20478;-70
2023/06/27 10:43:41;;;;;;;1.27;0.67;;;23.30;1.00;;;;;;5086165;28;20492;-71
2023/06/27 10:46:17;;;;;;;0.70;0.17;;;23.50;1.00;;;;;;5069037;28;20487;-70
2023/06/27 10:48:53;;;;;;;0.70;0.20;;;23.60;1.00;;;;;;5068815;28;20813;-71
2023/06/27 10:51:33;;;;;;;0.70;0.10;;;23.60;1.00;;;;;;5077840;28;20439;-71
2023/06/27 10:54:18;;;;;;;0.70;0.10;;;23.80;1.00;;;;;;5088661;28;20443;-71
2023/06/27 10:56:48;;;;;;;0.70;0.13;;;23.70;1.00;;;;;;5088790;28;20486;-71
2023/06/27 10:59:17;;;;;;;0.97;0.87;;;23.70;1.00;;;;;;5088698;28;20478;-70
2023/06/27 11:01:51;;;;;;;0.70;0.20;;;23.80;1.00;;;;;;5088170;28;20458;-71
2023/06/27 11:07:26;;;;;;;0.70;0.30;;;;;;;;;;5088426;28;20484;-71
2023/06/27 11:09:55;;;;;;;0.70;0.10;;;24.00;1.00;;;;;;5088478;28;20473;-71
2023/06/27 11:12:24;;;;;;;0.70;0.20;;;;;;;;;;5085083;28;20477;-72
2023/06/27 11:14:53;;;;;;;0.70;0.20;;;24.00;1.00;;;;;;5088234;28;20989;-71
2023/06/27 11:17:23;;;;;;;0.70;0.20;;;24.00;1.00;;;;;;5088540;28;20450;-71
2023/06/27 11:19:56;;;;;;;0.70;0.20;;;24.10;1.00;;;;;;5088621;28;20452;-71
2023/06/27 11:22:25;;;;;;;0.80;0.20;;;24.20;1.00;;;;;;5071070;28;20534;-72
2023/06/27 11:24:53;;;;;;;0.70;0.20;;;;;;;;;;5068905;28;20495;-71
2023/06/27 11:27:22;;;;;;;0.70;0.13;;;24.40;1.00;;;;;;5055905;28;20531;-72
2023/06/27 11:29:51;;;;;;;0.70;0.30;;;24.30;1.00;;;;;;5062051;28;20451;-71
2023/06/27 11:32:19;;;;;;;0.70;0.20;;;24.50;1.00;;;;;;5066486;28;20448;-71
2023/06/27 11:34:47;;;;;;;0.80;0.23;;;;;;;;;;5074501;28;20906;-72
2023/06/27 11:37:18;;;;;;;1.03;0.50;;;24.40;1.00;;;;;;5074581;28;20984;-72
2023/06/27 11:39:53;;;;;;;0.70;0.20;;;24.40;1.00;;;;;;5074978;28;20533;-72
2023/06/27 11:42:33;;;;;;;1.50;0.53;;;24.60;1.00;;;;;;5059973;28;20535;-71
2023/06/27 11:45:01;;;;;;;0.70;0.13;;;24.70;1.00;;;;;;5057431;28;20487;-70
2023/06/27 11:47:29;;;;;;;1.80;0.43;;;;;;;;;;5057883;28;20516;-70
2023/06/27 11:50:06;;;;;;;0.70;0.20;;;24.60;1.00;;;;;;5057194;28;20449;-70
2023/06/27 11:52:36;;;;;;;0.80;0.20;;;;;;;;;;5071561;28;21080;-70
2023/06/27 11:55:05;;;;;;;0.70;0.20;;;24.60;1.00;;;;;;5074826;28;21075;-70
2023/06/27 11:57:47;;;;;;;0.70;0.20;;;24.70;1.00;;;;;;5074550;28;20810;-70
2023/06/27 12:00:20;;;;;;;0.70;0.17;;;24.50;1.00;;;;;;5074647;28;20452;-70
2023/06/27 12:02:52;;;;;;;0.70;0.10;;;24.40;1.00;;;;;;5073296;28;20482;-70
2023/06/27 12:05:22;;;;;;;0.70;0.20;;;24.40;1.00;;;;;;5074532;28;20486;-70
2023/06/27 12:08:01;;;;;;;0.70;0.20;;;24.50;1.00;;;;;;5074770;28;20470;-71
2023/06/27 12:10:29;;;;;;;0.70;0.20;;;24.70;1.00;;;;;;5060412;28;20452;-70
2023/06/27 12:12:57;;;;;;;0.70;0.20;;;24.80;1.00;;;;;;5054601;28;20531;-71
2023/06/27 12:15:26;;;;;;;0.70;0.20;;;;;;;;;;5054296;28;20547;-70
2023/06/27 12:18:02;;;;;;;0.70;0.20;;;25.10;1.00;;;;;;5055396;28;20525;-70
2023/06/27 12:20:41;;;;;;;0.70;0.30;;;25.00;1.00;;;;;;5054832;28;20449;-71
2023/06/27 12:23:11;;;;;;;0.70;0.10;;;24.80;1.00;;;;;;5053492;28;20457;-70
2023/06/27 12:25:40;;;;;;;0.70;0.20;;;24.80;1.00;;;;;;5054334;28;20533;-69
2023/06/27 12:28:11;;;;;;;0.70;0.10;;;24.70;1.00;;;;;;5053771;28;20447;-70
2023/06/27 12:30:39;;;;;;;0.70;0.10;;;24.80;1.00;;;;;;5063642;28;20802;-71
2023/06/27 12:33:08;;;;;;;3.37;1.13;;;24.70;1.00;;;;;;5072911;28;20808;-71
2023/06/27 12:35:36;;;;;;;0.70;0.20;;;;;;;;;;5066795;28;20487;-71
2023/06/27 12:38:05;;;;;;;0.90;0.20;;;;;;;;;;5063298;28;20485;-71
2023/06/27 12:40:35;;;;;;;0.70;0.20;;;24.30;1.00;;;;;;5073364;28;20966;-70
2023/06/27 12:43:05;;;;;;;0.70;0.20;;;;;;;;;;5073050;28;20444;-70
2023/06/27 12:45:34;;;;;;;0.70;0.20;;;24.60;1.00;;;;;;5073311;28;20585;-71
2023/06/27 12:48:11;;;;;;;0.70;0.13;;;;;;;;;;5072976;28;20448;-71
2023/06/27 12:50:39;;;;;;;0.90;0.40;;;25.20;1.00;;;;;;5073173;28;20444;-70
2023/06/27 12:53:07;;;;;;;2.57;1.40;;;25.30;1.00;;;;;;5072788;28;20451;-70
2023/06/27 12:55:37;;;;;;;0.90;0.60;;;25.30;1.00;;;;;;5072902;28;20453;-70
2023/06/27 12:58:05;;;;;;;0.70;0.20;;;;;;;;;;5055196;28;20485;-70
2023/06/27 13:00:37;;;;;;;0.70;0.10;;;;;;;;;;5053049;28;20457;-70
2023/06/27 13:03:06;;;;;;;1.17;0.60;;;25.30;1.00;;;;;;5053041;28;20444;-71
2023/06/27 13:05:46;;;;;;;0.70;0.20;;;25.10;1.00;;;;;;5063680;28;20515;-71
2023/06/27 13:08:14;;;;;;;0.70;0.20;;;24.90;1.00;;;;;;5053568;28;20508;-71
2023/06/27 13:10:45;;;;;;;0.70;0.20;;;24.80;1.00;;;;;;5059092;28;20602;-71
2023/06/27 13:13:13;;;;;;;0.70;0.20;;;;;;;;;;5066528;28;20433;-71
2023/06/27 13:15:41;;;;;;;0.90;0.57;;;24.80;1.00;;;;;;5062906;28;20484;-72
2023/06/27 13:18:10;;;;;;;1.10;0.30;;;24.70;1.00;;;;;;5068721;28;20826;-70
2023/06/27 13:20:39;;;;;;;0.70;0.10;;;;;;;;;;5053327;28;20452;-71
2023/06/27 13:23:08;;;;;;;0.70;0.20;;;24.80;1.00;;;;;;5052153;28;20442;-70
2023/06/27 13:25:36;;;;;;;0.70;0.20;;;;;;;;;;5053864;28;20570;-70
2023/06/27 13:28:05;;;;;;;0.70;0.20;;;25.10;1.00;;;;;;5058731;28;20458;-70
2023/06/27 13:30:34;;;;;;;0.70;0.20;;;25.20;1.00;;;;;;5072248;28;20459;-70
2023/06/27 13:33:02;;;;;;;0.70;0.20;;;;;;;;;;5071528;28;20971;-70
2023/06/27 13:35:30;;;;;;;0.70;0.17;;;25.20;1.00;;;;;;5053193;28;20552;-70
2023/06/27 13:37:58;;;;;;;0.70;0.10;;;25.40;1.00;;;;;;5071611;28;20551;-70
2023/06/27 13:40:29;;;;;;;0.70;0.20;;;25.50;1.00;;;;;;5069546;28;20479;-71
2023/06/27 13:42:57;;;;;;;0.70;0.10;;;25.70;1.00;;;;;;5052855;28;20446;-70
2023/06/27 13:45:26;;;;;;;0.70;0.10;;;25.90;1.00;;;;;;5067717;28;20852;-72
2023/06/27 13:47:54;;;;;;;0.70;0.20;;;;;;;;;;5067438;28;20850;-72
2023/06/27 13:50:23;;;;;;;0.70;0.20;;;;;;;;;;5062428;28;20441;-72
2023/06/27 13:52:50;;;;;;;0.93;0.40;;;25.90;1.00;;;;;;5061473;28;20457;-72
2023/06/27 13:55:19;;;;;;;4.50;0.63;;;;;;;;;;5062022;28;20491;-71
2023/06/27 13:57:48;;;;;;;0.70;0.20;;;;;;;;;;5054022;28;20466;-70
2023/06/27 14:00:17;;;;;;;0.70;0.20;;;25.60;1.00;;;;;;5058919;28;20488;-71
2023/06/27 14:02:47;;;;;;;0.87;0.57;;;;;;;;;;5055110;28;20810;-70
2023/06/27 14:05:15;;;;;;;0.70;0.20;;;;;;;;;;5063052;28;20453;-71
2023/06/27 14:07:43;;;;;;;0.70;0.10;;;25.40;1.00;;;;;;5064717;28;20559;-71
2023/06/27 14:10:12;;;;;;;0.70;0.20;;;;;;;;;;5068864;28;20449;-70
2023/06/27 14:12:39;;;;;;;0.70;0.10;;;25.30;1.00;;;;;;5068253;28;20448;-72
2023/06/27 14:15:09;;;;;;;0.70;0.10;;;25.20;1.00;;;;;;5066005;28;20476;-71
2023/06/27 14:17:37;;;;;;;0.70;0.10;;;;;;;;;;5061226;28;20532;-71
2023/06/27 14:20:09;;;;;;;0.70;0.20;;;25.00;1.00;;;;;;5057903;28;20975;-71
2023/06/27 14:22:36;;;;;;;1.57;0.57;;;24.90;1.00;;;;;;5051662;28;20448;-72
2023/06/27 14:25:05;;;;;;;0.70;0.20;;;24.70;1.00;;;;;;5052677;28;20553;-71
2023/06/27 14:27:33;;;;;;;0.70;0.10;;;;;;;;;;5071795;28;20515;-71
2023/06/27 14:30:02;;;;;;;0.70;0.20;;;;;;;;;;5071807;28;20570;-71
2023/06/27 14:32:30;;;;;;;0.70;0.27;;;;;;;;;;5065854;28;20440;-71
2023/06/27 14:34:58;;;;;;;1.37;0.80;;;;;;;;;;5071279;28;20465;-71
2023/06/27 14:37:28;;;;;;;0.70;0.20;;;25.00;1.00;;;;;;5064658;28;20450;-70
2023/06/27 14:39:56;;;;;;;0.70;0.20;;;;;;;;;;5059093;28;20491;-71
2023/06/27 14:42:26;;;;;;;0.70;0.10;;;25.50;1.00;;;;;;5050694;28;20489;-71
2023/06/27 14:44:54;;;;;;;1.00;0.63;;;25.80;1.00;;;;;;5051827;28;20457;-70
2023/06/27 14:47:22;;;;;;;0.77;0.27;;;;;;;;;;5051866;28;20521;-71
2023/06/27 14:49:50;;;;;;;0.70;0.10;;;26.20;1.00;;;;;;5051897;28;20446;-71
2023/06/27 14:52:19;;;;;;;0.90;0.37;;;;;;;;;;5050931;28;21006;-70
2023/06/27 14:54:48;;;;;;;0.70;0.10;;;26.00;1.00;;;;;;5054647;28;20480;-72
2023/06/27 14:57:16;;;;;;;1.00;0.53;;;;;;;;;;5059028;28;20473;-73
2023/06/27 14:59:45;;;;;;;0.70;0.17;;;;;;;;;;5053062;28;20448;-71
2023/06/27 15:02:14;;;;;;;0.70;0.10;;;25.60;1.00;;;;;;5054534;28;20545;-72
2023/06/27 15:04:42;;;;;;;0.80;0.43;;;;;;;;;;5054996;28;21057;-71
2023/06/27 15:07:11;;;;;;;0.70;0.20;;;;;;;;;;5055102;28;20916;-71
2023/06/27 15:09:39;;;;;;;1.17;0.50;;;;;;;;;;5054860;28;20497;-68
2023/06/27 15:12:09;;;;;;;0.70;0.20;;;25.50;1.00;;;;;;5069173;28;20533;-68
2023/06/27 15:14:38;;;;;;;0.70;0.20;;;;;;;;;;5075396;28;20551;-67
2023/06/27 15:17:06;;;;;;;1.10;0.50;;;25.20;1.00;;;;;;5071480;28;20966;-69
2023/06/27 15:19:34;;;;;;;0.70;0.17;;;;;;;;;;5074720;28;20519;-69
2023/06/27 15:22:02;;;;;;;0.70;0.20;;;25.20;1.00;;;;;;5064389;28;20454;-68
2023/06/27 15:24:30;;;;;;;0.70;0.10;;;;;;;;;;5062596;28;20909;-69
2023/06/27 15:26:59;;;;;;;0.70;0.30;;;25.40;1.00;;;;;;5074872;28;20483;-70
2023/06/27 15:29:28;;;;;;;1.67;1.23;;;25.50;1.00;;;;;;5068439;28;20446;-69
2023/06/27 15:31:56;;;;;;;1.00;0.47;;;25.50;1.00;;;;;;5064180;28;20531;-69
2023/06/27 15:34:24;;;;;;;0.70;0.20;;;;;;;;;;5066247;28;20488;-68
2023/06/27 15:36:52;;;;;;;1.73;1.07;;;;;;;;;;5068821;28;20447;-70
2023/06/27 15:39:24;;;;;;;0.70;0.10;;;;;;;;;;5061363;28;20448;-70
2023/06/27 15:41:52;;;;;;;0.70;0.27;;;;;;;;;;5059457;28;20444;-68
2023/06/27 15:44:20;;;;;;;0.70;0.10;;;;;;;;;;5063395;28;20441;-69
2023/06/27 15:46:49;;;;;;;1.00;0.40;;;25.80;1.00;;;;;;5067223;28;20943;-70
2023/06/27 15:49:17;;;;;;;0.80;0.20;;;25.90;1.00;;;;;;5062577;28;21174;-70
2023/06/27 15:51:46;;;;;;;0.70;0.10;;;26.00;1.00;;;;;;5055223;28;20448;-75
2023/06/27 15:54:16;;;;;;;0.70;0.20;;;;;;;;;;5054832;28;20463;-73
2023/06/27 15:56:44;;;;;;;0.70;0.20;;;26.20;1.00;;;;;;5054949;28;20528;-71
2023/06/27 15:59:12;;;;;;;2.13;0.70;;;;;;;;;;5056703;28;20477;-70
2023/06/27 16:01:41;;;;;;;0.70;0.10;;;;;;;;;;5074200;28;20536;-70
2023/06/27 16:04:10;;;;;;;0.70;0.10;;;25.70;1.00;;;;;;5055363;28;20452;-70
2023/06/27 16:06:39;;;;;;;0.70;0.20;;;;;;;;;;5054491;28;20863;-71
2023/06/27 16:09:09;;;;;;;1.00;0.73;;;25.60;1.00;;;;;;5056794;28;20481;-70
2023/06/27 16:11:38;;;;;;;0.70;0.20;;;;;;;;;;5074554;28;20855;-70
2023/06/27 16:14:06;;;;;;;0.70;0.10;;;;;;;;;;5075048;28;20456;-70
2023/06/27 16:16:34;;;;;;;1.50;1.20;;;;;;;;;;5070683;22;20491;-74
2023/06/27 16:19:02;;;;;;;0.80;0.40;;;25.50;1.00;;;;;;5043397;28;20447;-74
2023/06/27 16:21:32;;;;;;;0.70;0.10;;;25.50;1.00;;;;;;5030336;28;20534;-74
2023/06/27 16:24:00;;;;;;;0.70;0.20;;;25.50;1.00;;;;;;5031647;28;20506;-74
2023/06/27 16:26:28;;;;;;;0.70;0.20;;;25.50;1.00;;;;;;5031881;28;20459;-73
2023/06/27 16:28:56;;;;;;;0.80;0.30;;;;;;;;;;5031114;28;20532;-75
2023/06/27 16:31:24;;;;;;;0.70;0.20;;;25.70;1.00;;;;;;5038364;28;20461;-73
2023/06/27 16:33:53;;;;;;;1.00;0.60;;;;;;;;;;5045007;28;20454;-71
2023/06/27 16:36:22;;;;;;;4.60;2.20;;;25.70;1.00;;;;;;5038213;28;20472;-73
2023/06/27 16:38:51;;;;;;;0.70;0.37;;;25.60;1.00;;;;;;5034793;28;20473;-72
2023/06/27 16:41:19;;;;;;;0.73;0.20;;;25.60;1.00;;;;;;5045074;28;20447;-72
2023/06/27 16:43:47;;;;;;;0.70;0.10;;;25.50;1.00;;;;;;5042676;28;20458;-71
2023/06/27 16:46:15;;;;;;;0.70;0.10;;;25.50;1.00;;;;;;5040522;28;20466;-71
2023/06/27 16:48:43;;;;;;;0.70;0.10;;;25.60;1.00;;;;;;5040272;28;20478;-71
2023/06/27 16:51:13;;;;;;;4.20;1.17;;;;;;;;;;5040089;28;20553;-72
2023/06/27 16:53:42;;;;;;;0.70;0.20;;;25.70;1.00;;;;;;5040417;28;20457;-73
2023/06/27 16:56:12;;;;;;;0.70;0.10;;;25.60;1.00;;;;;;5038290;28;20493;-74
2023/06/27 16:58:41;;;;;;;0.70;0.10;;;25.60;1.00;;;;;;5043981;28;20455;-75
2023/06/27 17:01:10;;;;;;;0.70;0.20;;;25.50;1.00;;;;;;5033562;28;20961;-74
2023/06/27 17:03:38;;;;;;;0.70;0.20;;;;;;;;;;5035755;28;20451;-72
2023/06/27 17:06:07;;;;;;;0.70;0.10;;;25.30;1.00;;;;;;5036036;28;20512;-72
2023/06/27 17:08:35;;;;;;;0.70;0.20;;;25.20;1.00;;;;;;5029456;28;20999;-71
2023/06/27 17:11:03;;;;;;;0.70;0.10;;;25.20;1.00;;;;;;5032232;28;20495;-71
2023/06/27 17:13:32;;;;;;;0.70;0.20;;;25.10;1.00;;;;;;5033993;28;20478;-72
2023/06/27 17:16:00;;;;;;;0.70;0.20;;;25.20;1.00;;;;;;5030174;28;20574;-71
2023/06/27 17:18:29;;;;;;;0.70;0.30;;;25.20;1.00;;;;;;5029782;28;20468;-72
2023/06/27 17:20:57;;;;;;;1.10;1.00;;;25.00;1.00;;;;;;5029721;28;20455;-74
2023/06/27 17:23:25;;;;;;;0.70;0.20;;;25.00;1.00;;;;;;5027675;28;20921;-77
2023/06/27 17:25:53;;;;;;;0.70;0.10;;;25.00;1.00;;;;;;5029462;28;20527;-73
2023/06/27 17:28:21;;;;;;;0.80;0.50;;;25.00;1.00;;;;;;5034219;28;20481;-73
2023/06/27 17:30:51;;;;;;;0.70;0.10;;;24.90;1.00;;;;;;5034759;28;20526;-74
2023/06/27 17:33:19;;;;;;;0.70;0.10;;;24.90;1.00;;;;;;5023262;28;20892;-73
2023/06/27 17:35:47;;;;;;;0.70;0.10;;;24.90;1.00;;;;;;5032888;28;20975;-75
2023/06/27 17:38:15;;;;;;;0.70;0.20;;;24.90;1.00;;;;;;5032002;28;20525;-73